createdAt,value
2022-12-03T00:01:15.369Z,101324.66
2022-12-03T00:04:03.104Z,101308.53
2022-12-03T00:07:03.796Z,101309.75
2022-12-03T00:09:44.295Z,101377.59
2022-12-03T00:12:11.270Z,101403.63
2022-12-03T00:14:44.167Z,101402.03
2022-12-03T00:17:11.727Z,101387.38
2022-12-03T00:19:58.826Z,101404.94
2022-12-03T00:22:39.400Z,101346.50
2022-12-03T00:25:06.954Z,101403.28
2022-12-03T00:27:34.004Z,101380.13
2022-12-03T00:30:00.875Z,101294.50
2022-12-03T00:32:28.010Z,101322.78
2022-12-03T00:34:55.218Z,101292.59
2022-12-03T00:37:42.786Z,101353.59
2022-12-03T00:40:23.519Z,101325.09
2022-12-03T00:42:50.400Z,101394.47
2022-12-03T00:45:17.333Z,101372.34
2022-12-03T00:47:44.198Z,101299.47
2022-12-03T00:50:11.728Z,101354.97
2022-12-03T00:52:58.794Z,101397.09
2022-12-03T00:55:39.446Z,101342.03
2022-12-03T00:58:08.426Z,101333.16
2022-12-03T01:00:36.169Z,101345.00
2022-12-03T01:03:22.838Z,101319.28
2022-12-03T01:06:03.742Z,101352.38
2022-12-03T01:08:30.762Z,101323.28
2022-12-03T01:10:57.686Z,101269.66
2022-12-03T01:13:24.557Z,101360.06
2022-12-03T01:16:12.077Z,101385.50
2022-12-03T01:19:12.954Z,101376.00
2022-12-03T01:22:13.828Z,101339.22
2022-12-03T01:25:14.840Z,101365.56
2022-12-03T01:28:17.869Z,101381.00
2022-12-03T01:31:17.110Z,101315.81
2022-12-03T01:33:44.169Z,101290.00
2022-12-03T01:36:11.138Z,101332.97
2022-12-03T01:38:38.139Z,101258.31
2022-12-03T01:41:10.078Z,101352.19
2022-12-03T01:43:39.006Z,101320.28
2022-12-03T01:46:06.349Z,101301.16
2022-12-03T01:48:53.854Z,101279.84
2022-12-03T01:51:34.488Z,101301.06
2022-12-03T01:54:03.546Z,101386.09
2022-12-03T01:56:30.716Z,101257.22
2022-12-03T01:58:57.760Z,101379.13
2022-12-03T02:01:24.812Z,101352.28
2022-12-03T02:04:11.933Z,101377.34
2022-12-03T02:06:52.546Z,101315.63
2022-12-03T02:09:19.513Z,101374.00
2022-12-03T02:11:50.722Z,101353.50
2022-12-03T02:14:21.750Z,101312.03
2022-12-03T02:16:48.890Z,101276.25
2022-12-03T02:19:39.870Z,101374.25
2022-12-03T02:22:46.876Z,101365.44
2022-12-03T02:25:33.780Z,101336.66
2022-12-03T02:28:01.996Z,101306.25
2022-12-03T02:30:41.593Z,101332.16
2022-12-03T02:33:08.608Z,101300.44
2022-12-03T02:35:37.635Z,101326.13
2022-12-03T02:38:17.098Z,101360.13
2022-12-03T02:40:46.628Z,101359.34
2022-12-03T02:43:16.605Z,101317.38
2022-12-03T02:45:46.395Z,101353.94
2022-12-03T02:48:17.800Z,101237.75
2022-12-03T02:50:52.203Z,101347.22
2022-12-03T02:53:28.120Z,101316.75
2022-12-03T02:56:16.889Z,101344.28
2022-12-03T02:59:00.438Z,101334.63
2022-12-03T03:01:27.537Z,101267.84
2022-12-03T03:04:15.878Z,101333.00
2022-12-03T03:06:56.562Z,101254.91
2022-12-03T03:09:23.647Z,101180.59
2022-12-03T03:11:50.636Z,101270.81
2022-12-03T03:14:17.840Z,101355.19
2022-12-03T03:16:45.000Z,101286.28
2022-12-03T03:19:12.104Z,101341.22
2022-12-03T03:21:58.971Z,101248.63
2022-12-03T03:24:59.984Z,101323.75
2022-12-03T03:27:54.072Z,101343.50
2022-12-03T03:30:48.867Z,101348.78
2022-12-03T03:33:30.120Z,101291.97
2022-12-03T03:35:59.967Z,101349.94
2022-12-03T03:38:28.570Z,101318.16
2022-12-03T03:40:58.258Z,101336.16
2022-12-03T03:43:25.571Z,101330.63
2022-12-03T03:45:54.174Z,101327.25
2022-12-03T03:48:22.618Z,101277.03
2022-12-03T03:51:09.893Z,101263.69
2022-12-03T03:53:51.753Z,101325.28
2022-12-03T03:56:21.938Z,101240.59
2022-12-03T03:59:09.885Z,101321.47
2022-12-03T04:02:10.896Z,101291.38
2022-12-03T04:05:11.912Z,101240.28
2022-12-03T04:08:06.152Z,101244.25
2022-12-03T04:11:05.131Z,101308.81
2022-12-03T04:13:32.264Z,101321.19
2022-12-03T04:15:59.252Z,101209.81
2022-12-03T04:18:44.462Z,101212.47
2022-12-03T04:21:51.995Z,101286.69
2022-12-03T04:24:53.192Z,101264.38
2022-12-03T04:27:51.967Z,101222.56
2022-12-03T04:30:20.815Z,101294.34
2022-12-03T04:33:06.340Z,101265.25
2022-12-03T04:35:42.488Z,101253.50
2022-12-03T04:38:13.778Z,101277.09
2022-12-03T04:40:59.980Z,101171.56
2022-12-03T04:43:28.052Z,101251.72
2022-12-03T04:45:55.185Z,101304.91
2022-12-03T04:48:22.401Z,101238.78
2022-12-03T04:50:49.317Z,101186.09
2022-12-03T04:53:16.282Z,101267.47
2022-12-03T04:55:43.351Z,101272.75
2022-12-03T04:58:10.585Z,101264.09
2022-12-03T05:00:58.998Z,101199.75
2022-12-03T05:03:59.951Z,101252.16
2022-12-03T05:07:00.987Z,101254.31
2022-12-03T05:09:41.744Z,101293.78
2022-12-03T05:12:08.807Z,101240.38
2022-12-03T05:14:35.853Z,101161.72
2022-12-03T05:17:03.100Z,101267.59
2022-12-03T05:20:08.949Z,101212.19
2022-12-03T05:22:49.500Z,101238.50
2022-12-03T05:25:16.555Z,101243.88
2022-12-03T05:27:43.800Z,101265.50
2022-12-03T05:30:11.485Z,101247.53
2022-12-03T05:32:38.653Z,101198.16
2022-12-03T05:35:06.178Z,101283.22
2022-12-03T05:37:33.132Z,101261.19
2022-12-03T05:40:00.040Z,101194.66
2022-12-03T05:42:45.510Z,101265.28
2022-12-03T05:45:12.492Z,101243.16
2022-12-03T05:47:39.529Z,101193.38
2022-12-03T05:50:07.466Z,101139.97
2022-12-03T05:52:34.455Z,101260.81
2022-12-03T05:55:01.802Z,101177.53
2022-12-03T05:57:29.273Z,101272.56
2022-12-03T05:59:56.415Z,101224.44
2022-12-03T06:02:37.394Z,101167.47
2022-12-03T06:05:37.990Z,101285.81
2022-12-03T06:08:18.900Z,101204.72
2022-12-03T06:10:48.611Z,101280.53
2022-12-03T06:13:15.850Z,101274.28
2022-12-03T06:15:44.093Z,101114.50
2022-12-03T06:18:11.865Z,101180.72
2022-12-03T06:20:59.006Z,101182.63
2022-12-03T06:23:44.866Z,101167.59
2022-12-03T06:26:13.074Z,101274.66
2022-12-03T06:28:41.209Z,101235.81
2022-12-03T06:31:08.260Z,101272.66
2022-12-03T06:33:35.322Z,101181.72
2022-12-03T06:36:02.464Z,101189.09
2022-12-03T06:38:29.760Z,101206.00
2022-12-03T06:40:56.759Z,101242.66
2022-12-03T06:43:23.943Z,101218.25
2022-12-03T06:45:51.118Z,101207.31
2022-12-03T06:48:18.131Z,101181.63
2022-12-03T06:50:45.125Z,101258.22
2022-12-03T06:53:32.031Z,101245.56
2022-12-03T06:56:12.812Z,101272.19
2022-12-03T06:58:39.892Z,101220.75
2022-12-03T07:01:27.182Z,101266.78
2022-12-03T07:04:28.080Z,101270.56
2022-12-03T07:07:08.676Z,101241.44
2022-12-03T07:09:56.045Z,101187.56
2022-12-03T07:12:36.726Z,101186.72
2022-12-03T07:15:03.952Z,101175.44
2022-12-03T07:17:31.026Z,101171.28
2022-12-03T07:20:19.137Z,101254.44
2022-12-03T07:22:59.826Z,101205.72
2022-12-03T07:25:27.090Z,101245.47
2022-12-03T07:27:54.244Z,101288.09
2022-12-03T07:30:23.681Z,101282.78
2022-12-03T07:33:11.140Z,101201.25
2022-12-03T07:35:51.601Z,101267.84
2022-12-03T07:38:18.825Z,101262.28
2022-12-03T07:40:45.952Z,101244.66
2022-12-03T07:43:33.026Z,101257.28
2022-12-03T07:46:13.680Z,101171.56
2022-12-03T07:48:40.737Z,101184.19
2022-12-03T07:51:08.863Z,101180.00
2022-12-03T07:53:39.376Z,101200.31
2022-12-03T07:56:06.788Z,101246.63
2022-12-03T07:58:33.813Z,101289.34
2022-12-03T08:01:01.100Z,101277.78
2022-12-03T08:03:49.303Z,101286.34
2022-12-03T08:06:38.967Z,101253.25
2022-12-03T08:09:43.130Z,101198.94
2022-12-03T08:12:47.055Z,101277.78
2022-12-03T08:15:20.427Z,101237.38
2022-12-03T08:18:13.253Z,101283.28
2022-12-03T08:21:14.178Z,101299.81
2022-12-03T08:23:56.688Z,101281.66
2022-12-03T08:26:26.103Z,101277.38
2022-12-03T08:28:54.373Z,101242.13
2022-12-03T08:31:44.121Z,101263.38
2022-12-03T08:34:30.627Z,101282.53
2022-12-03T08:37:47.818Z,101275.72
2022-12-03T08:40:42.235Z,101163.47
2022-12-03T08:43:42.170Z,101042.97
2022-12-03T08:46:19.680Z,101275.44
2022-12-03T08:49:07.254Z,101267.09
2022-12-03T08:51:48.391Z,101241.97
2022-12-03T08:54:20.555Z,101178.75
2022-12-03T08:56:47.800Z,101251.38
2022-12-03T08:59:45.365Z,101039.19
2022-12-03T09:02:50.170Z,101295.91
2022-12-03T09:05:50.671Z,101267.97
2022-12-03T09:08:18.714Z,101189.34
2022-12-03T09:10:45.952Z,101230.72
2022-12-03T09:13:30.933Z,101090.41
2022-12-03T09:16:08.121Z,101280.91
2022-12-03T09:18:37.593Z,101275.13
2022-12-03T09:21:53.126Z,101127.41
2022-12-03T09:24:54.480Z,101277.81
2022-12-03T09:27:55.078Z,101266.19
2022-12-03T09:30:37.128Z,101263.81
2022-12-03T09:33:24.178Z,101208.25
2022-12-03T09:36:05.096Z,101274.56
2022-12-03T09:38:33.138Z,101251.94
2022-12-03T09:41:40.174Z,101267.59
2022-12-03T09:44:19.988Z,101024.34
2022-12-03T09:47:49.435Z,101011.22
2022-12-03T09:50:31.057Z,101264.41
2022-12-03T09:53:02.527Z,101272.59
2022-12-03T09:55:30.943Z,101160.25
2022-12-03T09:57:58.409Z,100916.16
2022-12-03T10:00:30.645Z,100905.41
2022-12-03T10:03:25.231Z,100990.50
2022-12-03T10:06:35.160Z,101129.78
2022-12-03T10:09:39.136Z,101253.22
2022-12-03T10:12:23.476Z,100889.63
2022-12-03T10:14:52.230Z,101243.94
2022-12-03T10:17:19.760Z,101110.16
2022-12-03T10:20:08.211Z,100943.28
2022-12-03T10:23:09.170Z,101241.69
2022-12-03T10:25:57.587Z,101037.53
2022-12-03T10:28:35.706Z,100972.19
2022-12-03T10:31:05.981Z,100898.19
2022-12-03T10:33:45.688Z,101235.88
2022-12-03T10:36:39.141Z,101171.97
2022-12-03T10:39:40.115Z,100893.16
2022-12-03T10:42:21.144Z,100922.47
2022-12-03T10:45:32.232Z,101200.94
2022-12-03T10:48:11.433Z,101202.41
2022-12-03T10:50:48.541Z,101082.97
2022-12-03T10:53:16.852Z,101090.19
2022-12-03T10:55:45.575Z,101092.25
2022-12-03T10:58:25.130Z,100881.84
2022-12-03T11:00:55.355Z,101180.38
2022-12-03T11:03:47.248Z,100893.81
2022-12-03T11:06:31.992Z,101085.38
2022-12-03T11:09:02.689Z,101125.03
2022-12-03T11:11:34.252Z,100909.59
2022-12-03T11:14:03.934Z,100906.00
2022-12-03T11:16:40.186Z,101197.47
2022-12-03T11:19:27.126Z,101198.84
2022-12-03T11:22:28.198Z,101191.66
2022-12-03T11:25:29.170Z,101199.19
2022-12-03T11:28:14.661Z,101198.13
2022-12-03T11:30:52.059Z,101196.50
2022-12-03T11:33:26.193Z,101189.72
2022-12-03T11:36:05.553Z,101178.28
2022-12-03T11:38:38.618Z,101171.91
2022-12-03T11:41:20.871Z,101017.31
2022-12-03T11:43:56.842Z,101182.28
2022-12-03T11:46:23.991Z,101180.03
2022-12-03T11:48:53.390Z,101131.72
2022-12-03T11:51:23.111Z,101127.31
2022-12-03T11:53:52.693Z,101171.44
2022-12-03T11:56:23.873Z,101112.75
2022-12-03T11:59:14.233Z,101160.34
2022-12-03T12:02:32.294Z,101060.66
2022-12-03T12:05:39.273Z,101169.59
2022-12-03T12:08:40.191Z,101010.25
2022-12-03T12:11:53.173Z,101174.31
2022-12-03T12:14:33.945Z,101102.41
2022-12-03T12:17:03.370Z,101047.38
2022-12-03T12:19:57.543Z,101004.72
2022-12-03T12:22:58.187Z,100983.75
2022-12-03T12:25:53.973Z,100927.06
2022-12-03T12:28:21.675Z,101033.41
2022-12-03T12:30:48.784Z,100966.72
2022-12-03T12:33:24.505Z,101094.06
2022-12-03T12:35:51.891Z,101095.22
2022-12-03T12:38:21.385Z,101111.19
2022-12-03T12:41:08.230Z,101120.06
2022-12-03T12:43:48.958Z,100991.94
2022-12-03T12:46:46.515Z,101028.09
2022-12-03T12:49:39.261Z,101034.00
2022-12-03T12:52:30.234Z,100936.56
2022-12-03T12:55:11.251Z,100956.13
2022-12-03T12:57:38.431Z,101114.34
2022-12-03T13:00:06.578Z,100952.47
2022-12-03T13:02:58.219Z,101000.66
2022-12-03T13:06:01.247Z,100841.47
2022-12-03T13:09:03.244Z,101118.63
2022-12-03T13:11:48.517Z,101111.56
2022-12-03T13:14:44.326Z,101104.34
2022-12-03T13:17:16.099Z,101079.09
2022-12-03T13:20:07.951Z,101084.13
2022-12-03T13:23:09.249Z,100888.28
2022-12-03T13:26:07.149Z,101110.47
2022-12-03T13:28:41.928Z,101067.03
2022-12-03T13:31:26.484Z,101106.31
2022-12-03T13:33:55.054Z,101102.19
2022-12-03T13:36:27.624Z,101023.38
2022-12-03T13:39:14.263Z,101050.03
2022-12-03T13:42:14.373Z,101106.84
2022-12-03T13:44:49.580Z,101108.44
2022-12-03T13:47:21.213Z,101045.81
2022-12-03T13:49:55.280Z,101103.03
2022-12-03T13:52:25.758Z,101034.47
2022-12-03T13:55:09.447Z,101108.88
2022-12-03T13:58:11.286Z,100924.38
2022-12-03T14:00:52.169Z,101088.78
2022-12-03T14:03:39.302Z,101066.47
2022-12-03T14:06:40.306Z,100791.97
2022-12-03T14:09:20.788Z,101082.13
2022-12-03T14:12:06.366Z,101050.28
2022-12-03T14:14:33.603Z,101025.97
2022-12-03T14:17:00.705Z,101088.94
2022-12-03T14:19:27.720Z,101057.00
2022-12-03T14:21:54.866Z,100944.22
2022-12-03T14:24:42.291Z,100971.56
2022-12-03T14:27:23.273Z,101085.16
2022-12-03T14:29:50.972Z,100804.41
2022-12-03T14:32:18.659Z,100834.78
2022-12-03T14:34:46.111Z,100997.91
2022-12-03T14:37:13.483Z,100826.81
2022-12-03T14:39:41.006Z,100819.25
2022-12-03T14:42:14.192Z,100835.06
2022-12-03T14:44:46.188Z,100915.66
2022-12-03T14:47:35.268Z,100959.69
2022-12-03T14:50:16.107Z,100975.81
2022-12-03T14:52:43.576Z,101146.06
2022-12-03T14:55:30.421Z,101093.94
2022-12-03T14:58:32.443Z,101136.06
2022-12-03T15:01:12.935Z,101128.31
2022-12-03T15:04:00.317Z,101091.25
2022-12-03T15:07:01.256Z,101143.94
2022-12-03T15:10:02.331Z,101086.41
2022-12-03T15:12:42.840Z,101104.50
2022-12-03T15:15:30.306Z,101056.13
2022-12-03T15:18:10.876Z,101129.38
2022-12-03T15:20:58.280Z,101135.03
2022-12-03T15:24:00.290Z,101069.28
2022-12-03T15:27:01.269Z,101072.22
2022-12-03T15:29:46.151Z,101145.00
2022-12-03T15:32:17.595Z,101146.34
2022-12-03T15:34:47.139Z,101146.00
2022-12-03T15:37:14.968Z,101124.88
2022-12-03T15:39:48.153Z,101152.44
2022-12-03T15:42:15.892Z,101044.38
2022-12-03T15:44:42.954Z,101048.75
2022-12-03T15:47:09.921Z,101160.31
2022-12-03T15:49:36.956Z,101156.09
2022-12-03T15:52:04.698Z,101147.22
2022-12-03T15:54:31.647Z,101125.84
2022-12-03T15:56:58.640Z,101040.25
2022-12-03T15:59:25.732Z,101106.25
2022-12-03T16:02:08.044Z,101152.16
2022-12-03T16:04:55.294Z,101104.81
2022-12-03T16:07:56.479Z,101109.72
2022-12-03T16:10:57.667Z,101081.94
2022-12-03T16:13:58.429Z,101136.84
2022-12-03T16:16:45.765Z,101150.28
2022-12-03T16:19:13.225Z,101154.78
2022-12-03T16:21:40.297Z,101158.66
2022-12-03T16:24:27.547Z,101093.47
2022-12-03T16:27:08.217Z,101155.13
2022-12-03T16:29:35.281Z,101106.69
2022-12-03T16:32:02.685Z,101162.22
2022-12-03T16:34:29.768Z,101145.16
2022-12-03T16:36:56.843Z,101150.69
2022-12-03T16:39:23.888Z,101169.03
2022-12-03T16:41:51.304Z,101084.88
2022-12-03T16:44:32.520Z,101138.19
2022-12-03T16:47:01.541Z,101190.41
2022-12-03T16:49:28.836Z,101132.56
2022-12-03T16:51:56.834Z,101149.97
2022-12-03T16:54:23.918Z,101141.19
2022-12-03T16:57:11.303Z,101134.72
2022-12-03T17:00:12.447Z,101108.63
2022-12-03T17:03:13.428Z,101116.09
2022-12-03T17:06:09.323Z,101134.53
2022-12-03T17:08:36.396Z,101152.19
2022-12-03T17:11:03.829Z,101142.47
2022-12-03T17:13:31.001Z,101146.44
2022-12-03T17:16:18.618Z,101104.53
2022-12-03T17:19:19.504Z,101066.91
2022-12-03T17:22:20.339Z,101109.66
2022-12-03T17:25:21.353Z,101137.63
2022-12-03T17:28:02.526Z,101122.88
2022-12-03T17:30:29.528Z,101069.94
2022-12-03T17:32:56.575Z,101074.59
2022-12-03T17:35:23.620Z,101063.16
2022-12-03T17:37:50.551Z,101113.22
2022-12-03T17:40:17.851Z,101095.38
2022-12-03T17:42:44.765Z,101146.19
2022-12-03T17:45:12.752Z,101142.88
2022-12-03T17:47:40.013Z,101139.66
2022-12-03T17:50:08.257Z,101153.19
2022-12-03T17:52:35.296Z,101104.88
2022-12-03T17:55:11.791Z,101146.75
2022-12-03T17:57:40.120Z,101142.97
2022-12-03T18:00:07.907Z,101138.09
2022-12-03T18:03:02.414Z,101139.31
2022-12-03T18:06:03.376Z,101128.03
2022-12-03T18:09:04.526Z,101125.47
2022-12-03T18:12:05.370Z,101134.22
2022-12-03T18:14:46.150Z,101134.03
2022-12-03T18:17:33.457Z,100815.03
2022-12-03T18:20:27.684Z,101130.00
2022-12-03T18:23:28.373Z,101129.66
2022-12-03T18:26:08.143Z,101089.16
2022-12-03T18:28:35.536Z,101070.78
2022-12-03T18:31:03.016Z,100818.50
2022-12-03T18:33:30.351Z,101131.38
2022-12-03T18:35:58.333Z,100892.09
2022-12-03T18:38:29.398Z,100999.47
2022-12-03T18:40:57.780Z,100841.06
2022-12-03T18:43:26.783Z,100914.72
2022-12-03T18:45:53.801Z,100944.41
2022-12-03T18:48:23.538Z,100790.53
2022-12-03T18:50:51.069Z,100814.50
2022-12-03T18:53:19.433Z,100812.59
2022-12-03T18:56:06.457Z,100825.56
2022-12-03T18:58:47.110Z,100799.31
2022-12-03T19:01:17.675Z,101076.06
2022-12-03T19:04:04.445Z,101001.44
2022-12-03T19:06:45.173Z,101129.75
2022-12-03T19:09:13.352Z,101012.84
2022-12-03T19:11:40.715Z,101113.44
2022-12-03T19:14:11.091Z,100825.03
2022-12-03T19:16:39.345Z,101002.72
2022-12-03T19:19:26.460Z,100813.31
2022-12-03T19:22:27.459Z,100959.94
2022-12-03T19:25:08.618Z,101170.56
2022-12-03T19:27:35.822Z,100954.03
2022-12-03T19:30:24.452Z,101138.16
2022-12-03T19:33:05.235Z,100940.38
2022-12-03T19:35:38.714Z,101126.53
2022-12-03T19:38:05.836Z,100802.16
2022-12-03T19:40:53.418Z,100827.81
2022-12-03T19:43:37.571Z,100796.56
2022-12-03T19:46:12.041Z,100811.97
2022-12-03T19:48:40.651Z,100781.31
2022-12-03T19:51:33.058Z,100900.41
2022-12-03T19:53:56.053Z,101132.97
2022-12-03T19:56:23.159Z,101111.41
2022-12-03T19:58:54.836Z,100807.97
2022-12-03T20:01:26.800Z,100988.22
2022-12-03T20:04:16.448Z,100875.22
2022-12-03T20:07:18.420Z,101135.66
2022-12-03T20:10:20.420Z,101119.19
2022-12-03T20:13:01.630Z,101129.72
2022-12-03T20:15:28.869Z,100794.66
2022-12-03T20:18:16.446Z,100807.31
2022-12-03T20:21:17.518Z,101022.88
2022-12-03T20:23:58.508Z,100921.81
2022-12-03T20:26:46.528Z,100986.69
2022-12-03T20:29:27.263Z,100780.69
2022-12-03T20:32:15.514Z,100806.78
2022-12-03T20:34:56.300Z,100817.16
2022-12-03T20:37:23.555Z,101024.28
2022-12-03T20:40:10.581Z,101109.34
2022-12-03T20:42:51.385Z,100974.72
2022-12-03T20:45:18.787Z,101120.09
2022-12-03T20:47:45.913Z,100839.41
2022-12-03T20:50:12.961Z,101110.56
2022-12-03T20:52:48.436Z,100780.91
2022-12-03T20:55:25.191Z,100758.84
2022-12-03T20:57:53.221Z,101076.69
2022-12-03T21:00:20.595Z,100715.91
2022-12-03T21:03:07.590Z,100762.84
2022-12-03T21:05:50.664Z,100907.94
2022-12-03T21:08:33.006Z,100794.84
2022-12-03T21:11:13.927Z,101090.38
2022-12-03T21:13:43.591Z,101068.28
2022-12-03T21:19:54.960Z,100856.56
2022-12-03T21:22:35.147Z,101099.94
2022-12-03T21:25:02.906Z,100889.16
2022-12-03T21:27:30.131Z,100969.59
2022-12-03T21:29:57.571Z,100860.66
2022-12-03T21:32:24.893Z,100746.91
2022-12-03T21:35:12.494Z,101073.28
2022-12-03T21:37:55.854Z,100941.03
2022-12-03T21:40:23.297Z,100941.38
2022-12-03T21:42:50.443Z,100921.41
2022-12-03T21:45:17.742Z,101020.41
2022-12-03T21:47:48.421Z,101029.44
2022-12-03T21:50:15.803Z,100912.84
2022-12-03T21:52:43.226Z,101057.97
2022-12-03T21:55:10.526Z,100736.03
2022-12-03T21:57:38.033Z,100897.31
2022-12-03T22:00:09.216Z,100805.28
2022-12-03T22:02:59.707Z,101067.44
2022-12-03T22:05:50.450Z,101061.31
2022-12-03T22:08:18.446Z,101057.81
2022-12-03T22:10:45.445Z,101064.78
2022-12-03T22:13:12.607Z,101053.22
2022-12-03T22:15:40.193Z,101063.63
2022-12-03T22:18:27.522Z,101059.47
2022-12-03T22:21:32.508Z,100954.69
2022-12-03T22:24:13.104Z,101060.00
2022-12-03T22:27:01.544Z,100947.91
2022-12-03T22:30:02.525Z,101064.84
2022-12-03T22:33:03.513Z,101037.69
2022-12-03T22:36:13.287Z,101061.13
2022-12-03T22:39:04.516Z,100997.19
2022-12-03T22:41:52.089Z,101056.13
2022-12-03T22:44:19.177Z,101037.63
2022-12-03T22:46:46.175Z,101051.19
2022-12-03T22:49:13.677Z,101065.41
2022-12-03T22:51:40.833Z,101069.63
2022-12-03T22:54:28.616Z,101064.78
2022-12-03T22:57:09.343Z,101001.75
2022-12-03T22:59:36.260Z,101051.53
2022-12-03T23:02:03.437Z,101054.66
2022-12-03T23:04:50.525Z,101084.72
2022-12-03T23:07:51.591Z,101038.75
2022-12-03T23:10:37.606Z,100933.66
2022-12-03T23:13:26.136Z,101055.28
2022-12-03T23:16:29.655Z,100976.63
2022-12-03T23:19:10.186Z,100932.78
2022-12-03T23:21:57.533Z,101041.13
2022-12-03T23:28:00.220Z,101024.16
2022-12-03T23:30:27.276Z,100993.69
2022-12-03T23:32:54.285Z,100989.63
2022-12-03T23:35:21.152Z,100985.50
2022-12-03T23:37:48.126Z,100973.19
2022-12-03T23:40:15.126Z,100921.34
2022-12-03T23:42:42.187Z,100954.94
2022-12-03T23:45:09.663Z,100997.66
2022-12-03T23:47:36.613Z,100913.63
2022-12-03T23:50:04.992Z,100986.06
2022-12-03T23:52:32.135Z,100969.94
2022-12-03T23:55:19.617Z,100984.34
2022-12-03T23:58:20.559Z,100910.97
